Airfield :
LOGIN :

Register | Disclaimer

   EN    FR    IT 

 










Legend :    VFR   Marginal VFR   IFR   Intensive IFR   Very Intensive IFR
Visi :
Ceiling :
>= 8 km
>= 3000ft
5 to 8 km
1000 to 3000 ft
1500m to 5 km
500 to 1000 ft
800 to 1500m
200 to 500 ft
< 800m
< 200 ft
Symbols :   Thunderstorms  Fog  Heavy snow  Heavy precipitations  Wind > 20 kt
SIGMETs :     Misc.  Thunderstorms  Icing  Turbulence  Mountain Waves  Volcanic Ashes







- Airport Elevation : 274 ft
- IATA code : PUY


LDPL - Pula

CURRENT METAR :
  • 200530Z 33003KT 270V020 9999 SCT050 12/07 Q1012 NOSIG

EXPIRED METARs :
  • 200500Z 01004KT 350V040 9999 SCT050 12/07 Q1012 BECMG 04010KT
  • 200430Z 03004KT 9999 SCT050 12/06 Q1012 BECMG 04010KT
  • 200400Z 01005KT 9999 SCT050 12/07 Q1012 BECMG 04010KT
  • 200330Z AUTO 02003KT 350V050 CAVOK 12/07 Q1012 BECMG 04010KT
  • 200300Z AUTO 36005KT CAVOK 12/07 Q1011 BECMG 04010KT

TAF TAF LDPL
Valid from the 20 at 06:00 until the 21 at 06:00 UTC


200525Z 2006/2106 06007KT 9999 SCT050 TX16/2013Z TN10/2104Z
BECMG 2012/2014 27010KT
BECMG 2017/2019 VRB02KT
No reported NOTAMs for that airfield.
1 SIGMET reported for the Zagreb FIR (LDZO) :
 
Embedded thunderstorms
LDZO SIGMET 2 VALID 200500/200800 LDZA
LDZO ZAGREB FIR EMBD TS OBS WI N4228 E01607 - N4327 E01433 - N4354 E01405 - N4404 E01622 - N4232 E01827 - N4146 E01734 - N4228 E01607 TOP FL320 STNR NC=



MET'MAP, your aeronautical weather chart ! - Copyright ORBIFLY December 2007 - Disclaimer

ORBIFLY MET'MAP TEAM :

Programming & Development : Alexandra Zaïnal
Concept & Development : Baudouin d'Aumeries
Co-Development & Prog : Marc-Olivier Méhu
Technical & hardware support : Manuel Goepfert

Contact : metmap@orbifly.com




SOURCES & CREDITS :

   NOAA